Detalii statie AGRONICOLESCU [00001CFA]

Toti senzorii

Date Temperatura solului [C]Precipitatii [mm]Voltaj baterie [mV]Leaf Wetness [Min]HC Air temperature [C]HC Relative humidity [%]Punctul de roua [C]
medieminmaxsumaultimatimpmedieminmaxmediemediemin
2019-04-19 19:00:00 0 7226 9.04 8.57 9.32 100 8.9 8.5
2019-04-19 20:00:00 0 7148 7.66 7.45 8.32 100 7.6 7.4
2019-04-19 21:00:00 0 7080 7.2 6.89 7.37 100 7.1 6.8
2019-04-19 22:00:00 0 7040 6.37 5.83 6.74 100 6.3 5.8
2019-04-19 23:00:00 0 7020 6.11 5.56 6.51 100 6 5.5
2019-04-20 00:00:00 0 7000 5.72 5.5 5.95 100 5.6 5.5
2019-04-20 01:00:00 0 6992 5.15 4.32 5.69 100 5.1 4.3
2019-04-20 02:00:00 0 6982 4.97 4.59 5.31 100 4.9 4.5
2019-04-20 03:00:00 0 6972 4.97 4.52 5.58 100 4.9 4.5
2019-04-20 04:00:00 0 6962 5.96 5.61 6.12 100 5.9 5.6
2019-04-20 05:00:00 0 6962 6.17 5.75 6.82 100 6.1 5.7
2019-04-20 06:00:00 0 6962 6.3 5.31 7.14 100 6.2 5.3
2019-04-20 07:00:00 0 6972 4.71 4.49 5.14 100 4.6 4.4
2019-04-20 08:00:00 0 7060 5.97 4.89 6.8 100 5.9 4.8
2019-04-20 09:00:00 0 7412 8.51 6.98 10.33 96.87 7.9 6.9
2019-04-20 10:00:00 0 7402 11.18 10.41 11.88 62.42 4 2.5
2019-04-20 11:00:00 0 7402 12.68 12.11 13.37 47.12 1.5 0.5
2019-04-20 12:00:00 0 7402 14.42 13.47 15.11 37.77 0 -1.5
2019-04-20 13:00:00 0 7402 14.96 13.33 16.29 30.64 -2.3 -3.9
2019-04-20 14:00:00 0 7392 15.39 14.37 17.47 26.22 -4 -5.8
2019-04-20 15:00:00 0 7402 15.6 14.73 16.4 27.57 -3.2 -4.5
2019-04-20 16:00:00 0 7392 14.68 13.95 15.16 30.12 -2.7 -3.7
2019-04-20 17:00:00 0 7372 14.57 13.85 15.06 30.4 -2.7 -3.6
2019-04-20 18:00:00 0 7392 14.56 13.66 16 32.89 -1.6 -2
2019-04-20 19:00:00 0 7352 13.45 13.25 13.58 36.06 -1.4 -2.3
2019-04-20 20:00:00 0 7226 12.58 11.63 13.49 39.5 -0.9 -1.9
2019-04-20 21:00:00 0 7138 10.17 8.87 11.29 48.49 -0.2 -0.6
2019-04-20 22:00:00 0 7080 8.29 7.74 8.87 55.75 -0.1 -0.4
2019-04-20 23:00:00 0 7040 7.69 7.46 7.98 58.91 0 -0.1
2019-04-21 00:00:00 0 7020 6.59 5.75 7.48 66.67 0.7 0.2
2019-04-21 01:00:00 0 7000 5.73 4.99 6.24 79.16 2.2 0.4
2019-04-21 02:00:00 0 6992 5.12 4.95 5.53 97.08 4.6 3
2019-04-21 03:00:00 0 6982 5.39 5.12 5.68 93.5 4.3 3.2
2019-04-21 04:00:00 0 6972 4.92 4.55 5.42 92.31 3.7 3.3
2019-04-21 05:00:00 0 6972 4.3 3.93 4.63 100 4.2 3.9
2019-04-21 06:00:00 0 6952 4.88 4.28 5.15 100 4.8 4.2
2019-04-21 07:00:00 0 6972 4.38 3.94 4.95 100 4.3 3.9
2019-04-21 08:00:00 0 7070 4.65 3.94 5.95 100 4.6 3.9
2019-04-21 09:00:00 0 7412 7.64 6.27 8.48 99.19 7.4 6.2
2019-04-21 10:00:00 0 7402 10 8.41 11.28 81.68 6.7 4.4
2019-04-21 11:00:00 0 7402 12.41 11.97 12.89 54.93 3.4 2.4
2019-04-21 12:00:00 0 7402 14.37 12.89 15.67 45.92 2.6 1.3
2019-04-21 13:00:00 0 7392 17.13 15.22 18.3 38.64 2.7 1.8
2019-04-21 14:00:00 0 7392 18.01 17.08 18.89 33.31 1.3 0.7
2019-04-21 15:00:00 0 7392 18.44 17.78 19.11 30.39 0.4 -0.2
2019-04-21 16:00:00 0 7392 19.35 18.37 20.57 28.7 0.5 -0.4
2019-04-21 17:00:00 0 7372 18.98 18.28 20.39 29.23 0.4 -0.1
2019-04-21 18:00:00 0 7392 17.87 17.07 19.3 31.91 0.6 0